Time;durP1;ratioP1;P1;durP2;ratioP2;P2;SDS_P1;SDS_P2;PMS_P1;PMS_P2;Temp;Humidity;BMP_temperature;BMP_pressure;BME280_temperature;BME280_humidity;BME280_pressure;Samples;Min_cycle;Max_cycle;Signal;HPM_P1;HPM_P2
2023/10/27 00:06:19;;;;;;;10.20;2.30;;;;;;;;;;21001692;28;20207;-70
2023/10/27 00:16:21;;;;;;;12.60;2.57;;;;;;;;;;21000175;28;20245;-69
2023/10/27 00:26:23;;;;;;;12.30;2.73;;;;;;;;;;20983620;28;20269;-70
2023/10/27 00:36:26;;;;;;;12.87;2.70;;;;;;;;;;20919174;28;20234;-69
2023/10/27 00:46:28;;;;;;;10.10;2.10;;;;;;;;;;20914853;28;20226;-70
2023/10/27 00:56:31;;;;;;;9.00;2.47;;;;;;;;;;20913439;28;20239;-68
2023/10/27 01:06:33;;;;;;;10.90;2.70;;;;;;;;;;20913071;28;20589;-69
2023/10/27 01:16:35;;;;;;;10.07;2.47;;;;;;;;;;20912469;28;20239;-70
2023/10/27 01:26:37;;;;;;;7.50;2.17;;;;;;;;;;20911643;28;20210;-70
2023/10/27 01:36:39;;;;;;;13.63;2.67;;;;;;;;;;20910910;28;20231;-69
2023/10/27 01:46:42;;;;;;;9.83;2.60;;;;;;;;;;20910932;28;20305;-70
2023/10/27 01:56:44;;;;;;;15.13;2.63;;;;;;;;;;20910893;28;20277;-70
2023/10/27 02:06:47;;;;;;;8.57;2.70;;;;;;;;;;20910915;28;20561;-71
2023/10/27 02:16:49;;;;;;;14.47;3.10;;;;;;;;;;20911613;28;20315;-71
2023/10/27 02:26:51;;;;;;;8.87;2.80;;;;;;;;;;20911285;28;20208;-70
2023/10/27 02:36:53;;;;;;;18.20;2.80;;;;;;;;;;20923896;28;20244;-68
2023/10/27 02:46:55;;;;;;;7.90;2.53;;;;;;;;;;20917934;28;20668;-69
2023/10/27 02:56:58;;;;;;;10.77;2.77;;;;;;;;;;20925897;28;20238;-69
2023/10/27 03:07:00;;;;;;;10.60;2.87;;;;;;;;;;20924833;28;20611;-68
2023/10/27 03:17:03;;;;;;;15.40;3.40;;;;;;;;;;20924335;28;20233;-69
2023/10/27 03:27:05;;;;;;;8.87;2.57;;;;;;;;;;20923108;28;20682;-70
2023/10/27 03:37:07;;;;;;;6.53;2.70;;;;;;;;;;20922271;28;20330;-69
2023/10/27 03:47:09;;;;;;;12.40;3.07;;;;;;;;;;20922085;28;20210;-69
2023/10/27 03:57:11;;;;;;;10.80;2.80;;;;;;;;;;20920780;28;20270;-69
2023/10/27 04:07:14;;;;;;;10.10;2.40;;;;;;;;;;20919952;28;20298;-70
2023/10/27 04:17:16;;;;;;;11.87;2.83;;;;;;;;;;20919589;28;20729;-69
2023/10/27 04:27:18;;;;;;;11.47;3.70;;;;;;;;;;20918312;28;20200;-69
2023/10/27 04:37:20;;;;;;;9.10;3.03;;;;;;;;;;20916713;28;20234;-69
2023/10/27 04:47:22;;;;;;;18.30;3.57;;;;;;;;;;20915728;28;20239;-71
2023/10/27 04:57:24;;;;;;;10.77;3.10;;;;;;;;;;20914785;28;20244;-70
2023/10/27 05:07:26;;;;;;;10.73;3.40;;;;;;;;;;20914821;28;20207;-69
2023/10/27 05:17:29;;;;;;;10.90;4.10;;;;;;;;;;20914713;28;20235;-69
2023/10/27 05:27:38;;;;;;;11.07;3.37;;;;;;;;;;20913004;28;20210;-68
2023/10/27 05:37:43;;;;;;;15.43;3.27;;;;;;;;;;20913045;28;20234;-66
2023/10/27 05:47:45;;;;;;;8.33;3.03;;;;;;;;;;20912430;28;20681;-66
2023/10/27 05:57:47;;;;;;;12.20;3.93;;;;;;;;;;20912142;28;20239;-69
2023/10/27 06:07:49;;;;;;;12.70;3.80;;;;;;;;;;20911916;28;20238;-66
2023/10/27 06:17:52;;;;;;;10.57;3.30;;;;;;;;;;20912794;28;20239;-69
2023/10/27 06:27:54;;;;;;;13.40;3.13;;;;;;;;;;20928248;28;20215;-70
2023/10/27 06:37:56;;;;;;;8.97;3.23;;;;;;;;;;20927274;28;20322;-69
2023/10/27 06:47:58;;;;;;;11.23;2.83;;;;;;;;;;20926142;28;20215;-70
2023/10/27 06:58:01;;;;;;;8.33;2.83;;;;;;;;;;20925362;28;20641;-70
2023/10/27 07:08:03;;;;;;;7.40;2.23;;;;;;;;;;20923231;28;20208;-70
2023/10/27 07:18:05;;;;;;;5.77;2.30;;;;;;;;;;20922793;28;20235;-67
2023/10/27 07:28:08;;;;;;;4.83;2.23;;;;;;;;;;20922927;28;20204;-68
2023/10/27 07:38:10;;;;;;;5.03;2.20;;;;;;;;;;20921545;28;20245;-68
2023/10/27 07:48:12;;;;;;;4.70;2.20;;;;;;;;;;20921220;28;20232;-68
2023/10/27 07:58:14;;;;;;;5.00;2.00;;;;;;;;;;20920283;28;20243;-68
2023/10/27 08:08:17;;;;;;;5.33;2.10;;;;;;;;;;20919645;28;20216;-66
2023/10/27 08:18:19;;;;;;;5.13;1.90;;;;;;;;;;20918751;28;20287;-66
2023/10/27 08:28:21;;;;;;;5.53;2.30;;;;;;;;;;20918539;28;20206;-68
2023/10/27 08:38:24;;;;;;;9.30;2.30;;;;;;;;;;20917483;28;20597;-68
2023/10/27 08:48:26;;;;;;;3.80;1.77;;;;;;;;;;20914546;28;20209;-69
2023/10/27 08:58:29;;;;;;;8.20;2.27;;;;;;;;;;20915613;28;20242;-68
2023/10/27 09:08:32;;;;;;;5.83;1.90;;;;;;;;;;20915083;28;20235;-68
2023/10/27 09:18:38;;;;;;;2.00;1.37;;;;;;;;;;20914228;28;20347;-68
2023/10/27 09:28:43;;;;;;;2.50;1.23;;;;;;;;;;20914457;28;20277;-69
2023/10/27 09:38:46;;;;;;;3.90;1.20;;;;;;;;;;20913106;28;20707;-68
2023/10/27 09:48:49;;;;;;;2.53;1.90;;;;;;;;;;20912258;28;20221;-67
2023/10/27 09:59:06;;;;;;;1.20;1.10;;;;;;;;;;20912619;28;20232;-66
2023/10/27 10:09:09;;;;;;;1.77;1.13;;;;;;;;;;20911580;28;20213;-69
2023/10/27 10:19:11;;;;;;;2.00;0.70;;;;;;;;;;20911871;28;20289;-69
2023/10/27 10:29:28;;;;;;;0.73;0.70;;;;;;;;;;20911978;28;20208;-67
2023/10/27 10:39:50;;;;;;;0.80;0.80;;;;;;;;;;20910087;28;20254;-68
2023/10/27 10:49:52;;;;;;;0.83;0.80;;;;;;;;;;20909577;28;20547;-69
2023/10/27 10:59:55;;;;;;;0.60;0.60;;;;;;;;;;20909414;28;20236;-68
2023/10/27 11:10:16;;;;;;;0.60;0.60;;;;;;;;;;20918549;28;20212;-69
2023/10/27 11:20:35;;;;;;;0.70;0.70;;;;;;;;;;20922860;28;20235;-68
2023/10/27 11:30:37;;;;;;;0.93;0.60;;;;;;;;;;20921722;28;20219;-68
2023/10/27 11:40:39;;;;;;;0.80;0.80;;;;;;;;;;20922033;28;20326;-68
2023/10/27 11:50:41;;;;;;;2.03;1.10;;;;;;;;;;20920864;28;20214;-69
2023/10/27 12:00:43;;;;;;;3.33;1.43;;;;;;;;;;20919896;28;20729;-68
2023/10/27 12:10:46;;;;;;;1.40;0.97;;;;;;;;;;20919619;28;20230;-69
2023/10/27 12:20:50;;;;;;;3.60;1.73;;;;;;;;;;20918691;28;20239;-69
2023/10/27 12:30:52;;;;;;;1.67;1.30;;;;;;;;;;20917408;28;20281;-69
2023/10/27 12:40:56;;;;;;;3.97;1.70;;;;;;;;;;20916541;28;20232;-68
2023/10/27 12:51:02;;;;;;;4.20;1.37;;;;;;;;;;20915667;28;20206;-68
2023/10/27 13:01:06;;;;;;;2.70;1.40;;;;;;;;;;20915369;28;20269;-68
2023/10/27 13:11:09;;;;;;;1.37;1.07;;;;;;;;;;20914080;28;20221;-68
2023/10/27 13:21:15;;;;;;;1.77;1.20;;;;;;;;;;20916746;28;20703;-68
2023/10/27 13:31:17;;;;;;;4.60;1.20;;;;;;;;;;20921452;28;20602;-68
2023/10/27 13:41:20;;;;;;;2.33;1.00;;;;;;;;;;20913161;28;20241;-77
2023/10/27 13:51:24;;;;;;;1.67;1.27;;;;;;;;;;20971104;28;20701;-71
2023/10/27 14:01:27;;;;;;;2.50;1.27;;;;;;;;;;21044552;28;20234;-70
2023/10/27 14:11:29;;;;;;;3.07;1.87;;;;;;;;;;21016379;28;20207;-72
2023/10/27 14:21:37;;;;;;;2.83;1.00;;;;;;;;;;20994014;28;20257;-70
2023/10/27 14:31:39;;;;;;;1.70;0.93;;;;;;;;;;20993664;28;20208;-68
2023/10/27 14:41:42;;;;;;;2.57;1.20;;;;;;;;;;20998378;28;20288;-68
2023/10/27 14:51:44;;;;;;;5.80;1.00;;;;;;;;;;21008588;28;20622;-69
2023/10/27 15:01:48;;;;;;;3.43;1.80;;;;;;;;;;21007545;28;20243;-72
2023/10/27 15:11:51;;;;;;;2.33;1.70;;;;;;;;;;21007685;28;20200;-74
2023/10/27 15:21:53;;;;;;;4.43;1.50;;;;;;;;;;21006113;28;20277;-73
2023/10/27 15:31:56;;;;;;;5.90;1.90;;;;;;;;;;21006076;28;20207;-71
2023/10/27 15:41:58;;;;;;;9.17;1.87;;;;;;;;;;21005439;28;20661;-72
2023/10/27 15:52:02;;;;;;;4.63;1.67;;;;;;;;;;21004049;28;20650;-70
2023/10/27 16:02:06;;;;;;;2.63;1.40;;;;;;;;;;21007742;28;20308;-68
2023/10/27 16:12:08;;;;;;;2.13;1.13;;;;;;;;;;20998309;28;20272;-69
2023/10/27 16:22:11;;;;;;;1.97;1.43;;;;;;;;;;21001293;28;20255;-75
2023/10/27 16:32:13;;;;;;;5.57;2.00;;;;;;;;;;21000766;28;20222;-71
2023/10/27 16:42:17;;;;;;;2.90;1.70;;;;;;;;;;21084361;28;20247;-74
2023/10/27 16:52:19;;;;;;;3.97;1.90;;;;;;;;;;21070370;28;20199;-72
2023/10/27 17:02:22;;;;;;;4.30;1.80;;;;;;;;;;21032651;28;20243;-72
2023/10/27 17:12:24;;;;;;;3.67;1.77;;;;;;;;;;21025256;28;20207;-68
2023/10/27 17:22:27;;;;;;;2.13;1.40;;;;;;;;;;21036731;28;20238;-68
2023/10/27 17:32:29;;;;;;;2.83;1.67;;;;;;;;;;20996546;28;20257;-72
2023/10/27 17:42:32;;;;;;;2.87;1.70;;;;;;;;;;21066158;28;20238;-71
2023/10/27 17:52:35;;;;;;;2.67;1.80;;;;;;;;;;21071086;28;20211;-68
2023/10/27 18:02:37;;;;;;;2.93;1.80;;;;;;;;;;21037365;28;20239;-71
2023/10/27 18:12:40;;;;;;;3.93;1.70;;;;;;;;;;21040506;28;20199;-71
2023/10/27 18:22:42;;;;;;;4.30;1.70;;;;;;;;;;21010812;28;20246;-73
2023/10/27 18:32:44;;;;;;;5.23;2.20;;;;;;;;;;21010744;28;20211;-74
2023/10/27 18:42:47;;;;;;;3.83;1.70;;;;;;;;;;21006415;28;20241;-71
2023/10/27 18:52:50;;;;;;;8.03;4.13;;;;;;;;;;21006987;28;20207;-77
2023/10/27 19:02:52;;;;;;;3.13;1.80;;;;;;;;;;21006809;28;20259;-71
2023/10/27 19:12:54;;;;;;;3.83;1.80;;;;;;;;;;21007522;28;20203;-70
2023/10/27 19:22:56;;;;;;;5.10;2.23;;;;;;;;;;21006508;28;20771;-70
2023/10/27 19:32:59;;;;;;;6.27;2.20;;;;;;;;;;21005098;28;20739;-71
2023/10/27 19:43:01;;;;;;;2.63;1.70;;;;;;;;;;21005478;28;20294;-71
2023/10/27 19:53:04;;;;;;;4.57;1.80;;;;;;;;;;21004600;28;20207;-75
2023/10/27 20:03:09;;;;;;;3.20;2.20;;;;;;;;;;21003466;28;20241;-72
2023/10/27 20:13:11;;;;;;;6.70;3.77;;;;;;;;;;21004432;28;20215;-72
2023/10/27 20:23:13;;;;;;;10.83;4.40;;;;;;;;;;21001597;28;20232;-73
2023/10/27 20:33:16;;;;;;;9.60;4.77;;;;;;;;;;21000971;28;20205;-76
2023/10/27 20:43:19;;;;;;;9.23;4.90;;;;;;;;;;20999590;28;20261;-72
2023/10/27 20:53:22;;;;;;;6.67;3.10;;;;;;;;;;20998423;28;20208;-72
2023/10/27 21:03:24;;;;;;;3.77;2.30;;;;;;;;;;20998689;28;20239;-73
2023/10/27 21:13:26;;;;;;;3.90;2.23;;;;;;;;;;20997394;28;20219;-74
2023/10/27 21:23:29;;;;;;;3.10;1.93;;;;;;;;;;20998710;28;20294;-71
2023/10/27 21:33:31;;;;;;;2.80;1.63;;;;;;;;;;21016449;28;20212;-75
2023/10/27 21:43:33;;;;;;;5.17;1.97;;;;;;;;;;20996711;28;20236;-74
2023/10/27 21:53:36;;;;;;;5.03;2.07;;;;;;;;;;20993642;28;20211;-67
2023/10/27 22:03:38;;;;;;;4.70;2.63;;;;;;;;;;20994507;28;20247;-70
2023/10/27 22:13:44;;;;;;;4.50;2.27;;;;;;;;;;20994998;28;20686;-70
2023/10/27 22:23:46;;;;;;;5.10;1.57;;;;;;;;;;20994557;28;20249;-71
2023/10/27 22:33:49;;;;;;;3.57;1.63;;;;;;;;;;20993926;28;20206;-70
2023/10/27 22:43:51;;;;;;;4.13;1.83;;;;;;;;;;20994278;28;20233;-70
2023/10/27 22:53:53;;;;;;;7.23;1.80;;;;;;;;;;20993208;28;20299;-72
2023/10/27 23:03:56;;;;;;;3.80;1.50;;;;;;;;;;20999209;28;20249;-71
2023/10/27 23:13:58;;;;;;;3.30;1.70;;;;;;;;;;21007929;28;20210;-70
2023/10/27 23:24:00;;;;;;;5.03;1.80;;;;;;;;;;21006633;28;20270;-67
2023/10/27 23:34:02;;;;;;;5.27;1.70;;;;;;;;;;21005899;28;20221;-68
2023/10/27 23:44:05;;;;;;;4.37;1.50;;;;;;;;;;21005506;28;20242;-67
2023/10/27 23:54:07;;;;;;;4.83;1.70;;;;;;;;;;21004631;28;20211;-69
